createdAt,value
2018-12-21T00:00:23.570Z,10.20
2018-12-21T00:02:52.299Z,10.30
2018-12-21T00:05:21.039Z,10.20
2018-12-21T00:07:49.584Z,10.20
2018-12-21T00:10:18.305Z,10.20
2018-12-21T00:12:46.941Z,10.20
2018-12-21T00:15:15.738Z,10.20
2018-12-21T00:17:44.605Z,10.20
2018-12-21T00:20:13.437Z,10.30
2018-12-21T00:22:42.075Z,10.30
2018-12-21T00:25:10.707Z,10.30
2018-12-21T00:27:39.274Z,10.20
2018-12-21T00:30:10.969Z,10.20
2018-12-21T00:32:45.186Z,10.10
2018-12-21T00:35:19.324Z,10.00
2018-12-21T00:37:53.622Z,10.00
2018-12-21T00:40:27.749Z,9.90
2018-12-21T00:43:01.028Z,9.90
2018-12-21T00:45:31.513Z,9.90
2018-12-21T00:48:00.191Z,9.90
2018-12-21T00:50:28.828Z,9.80
2018-12-21T00:52:57.418Z,9.90
2018-12-21T00:55:26.061Z,9.80
2018-12-21T00:57:55.015Z,9.60
2018-12-21T01:00:25.594Z,9.60
2018-12-21T01:02:54.256Z,9.60
2018-12-21T01:05:23.084Z,9.60
2018-12-21T01:07:52.111Z,9.60
2018-12-21T01:10:20.943Z,9.60
2018-12-21T01:12:49.882Z,9.50
2018-12-21T01:15:18.574Z,9.50
2018-12-21T01:17:47.502Z,9.40
2018-12-21T01:20:16.272Z,9.50
2018-12-21T01:22:44.902Z,9.40
2018-12-21T01:25:13.619Z,9.20
2018-12-21T01:27:42.376Z,9.20
2018-12-21T01:30:11.379Z,9.20
2018-12-21T01:32:39.905Z,9.10
2018-12-21T01:35:08.870Z,9.20
2018-12-21T01:37:37.701Z,9.20
2018-12-21T01:40:08.366Z,9.00
2018-12-21T01:42:37.137Z,9.00
2018-12-21T01:45:06.106Z,9.00
2018-12-21T01:47:34.799Z,9.00
2018-12-21T01:50:03.634Z,9.10
2018-12-21T01:52:32.383Z,9.10
2018-12-21T01:55:01.097Z,8.80
2018-12-21T01:57:29.736Z,8.70
2018-12-21T01:59:58.365Z,8.60
2018-12-21T02:02:26.929Z,8.70
2018-12-21T02:04:55.641Z,8.70
2018-12-21T02:07:24.280Z,8.60
2018-12-21T02:09:53.109Z,8.60
2018-12-21T02:12:21.848Z,8.80
2018-12-21T02:14:50.575Z,8.80
2018-12-21T02:17:19.131Z,8.80
2018-12-21T02:19:47.652Z,8.90
2018-12-21T02:22:16.392Z,8.70
2018-12-21T02:24:45.118Z,8.40
2018-12-21T02:27:13.763Z,8.30
2018-12-21T02:29:42.569Z,8.40
2018-12-21T02:32:11.230Z,8.30
2018-12-21T02:34:39.865Z,8.40
2018-12-21T02:37:08.689Z,8.50
2018-12-21T02:39:37.289Z,8.50
2018-12-21T02:42:05.932Z,8.20
2018-12-21T02:44:34.598Z,8.10
2018-12-21T02:47:03.141Z,8.10
2018-12-21T02:49:31.668Z,8.20
2018-12-21T02:52:05.303Z,8.20
2018-12-21T02:54:30.968Z,8.20
2018-12-21T02:56:59.711Z,8.10
2018-12-21T02:59:28.374Z,8.00
2018-12-21T03:01:57.010Z,8.00
2018-12-21T03:04:25.841Z,7.90
2018-12-21T03:06:54.554Z,7.80
2018-12-21T03:09:23.307Z,7.80
2018-12-21T03:11:52.063Z,7.80
2018-12-21T03:14:20.534Z,7.70
2018-12-21T03:16:49.215Z,7.70
2018-12-21T03:19:17.765Z,8.00
2018-12-21T03:21:46.489Z,7.70
2018-12-21T03:24:15.188Z,7.80
2018-12-21T03:26:43.828Z,7.90
2018-12-21T03:29:12.514Z,7.80
2018-12-21T03:31:41.155Z,7.80
2018-12-21T03:34:09.853Z,7.90
2018-12-21T03:36:38.587Z,7.70
2018-12-21T03:39:08.678Z,7.50
2018-12-21T03:41:37.534Z,7.50
2018-12-21T03:44:06.368Z,7.60
2018-12-21T03:46:35.205Z,7.50
2018-12-21T03:49:04.028Z,7.40
2018-12-21T03:51:32.593Z,7.40
2018-12-21T03:54:01.608Z,7.40
2018-12-21T03:56:30.346Z,7.40
2018-12-21T03:58:58.902Z,7.20
2018-12-21T04:01:27.479Z,7.10
2018-12-21T04:03:56.006Z,7.30
2018-12-21T04:06:24.648Z,7.40
2018-12-21T04:08:53.236Z,7.60
2018-12-21T04:11:22.101Z,7.60
2018-12-21T04:13:50.777Z,7.40
2018-12-21T04:16:19.339Z,7.30
2018-12-21T04:18:48.132Z,7.20
2018-12-21T04:21:16.797Z,7.20
2018-12-21T04:23:45.380Z,7.00
2018-12-21T04:26:13.957Z,7.00
2018-12-21T04:28:42.522Z,6.90
2018-12-21T04:31:11.228Z,6.90
2018-12-21T04:33:39.784Z,7.00
2018-12-21T04:36:08.692Z,7.10
2018-12-21T04:38:37.330Z,7.20
2018-12-21T04:41:05.934Z,7.30
2018-12-21T04:43:34.474Z,7.30
2018-12-21T04:46:03.197Z,7.40
2018-12-21T04:48:31.868Z,7.30
2018-12-21T04:51:00.433Z,7.30
2018-12-21T04:53:29.125Z,7.30
2018-12-21T04:55:57.775Z,7.20
2018-12-21T04:58:26.608Z,7.40
2018-12-21T05:00:55.439Z,7.30
2018-12-21T05:03:24.272Z,7.10
2018-12-21T05:05:52.832Z,7.10
2018-12-21T05:08:21.502Z,7.30
2018-12-21T05:10:50.178Z,7.20
2018-12-21T05:13:18.817Z,7.40
2018-12-21T05:15:47.378Z,7.20
2018-12-21T05:18:16.478Z,7.00
2018-12-21T05:20:44.980Z,6.90
2018-12-21T05:23:13.620Z,6.90
2018-12-21T05:25:42.256Z,6.90
2018-12-21T05:28:11.043Z,6.90
2018-12-21T05:30:39.517Z,7.00
2018-12-21T05:33:08.197Z,7.20
2018-12-21T05:35:36.925Z,7.10
2018-12-21T05:38:05.499Z,7.30
2018-12-21T05:40:34.195Z,7.20
2018-12-21T05:43:02.830Z,7.10
2018-12-21T05:45:31.514Z,7.20
2018-12-21T05:48:00.109Z,7.10
2018-12-21T05:50:28.643Z,7.20
2018-12-21T05:53:00.712Z,7.20
2018-12-21T05:55:27.877Z,7.20
2018-12-21T05:57:57.005Z,7.10
2018-12-21T06:00:25.640Z,7.10
2018-12-21T06:02:54.178Z,7.20
2018-12-21T06:05:22.620Z,7.20
2018-12-21T06:07:51.550Z,7.20
2018-12-21T06:10:20.183Z,7.20
2018-12-21T06:12:48.750Z,7.30
2018-12-21T06:15:17.451Z,7.30
2018-12-21T06:17:46.086Z,7.10
2018-12-21T06:20:14.952Z,7.20
2018-12-21T06:22:43.748Z,7.10
2018-12-21T06:25:12.317Z,7.00
2018-12-21T06:27:41.002Z,7.00
2018-12-21T06:30:09.644Z,7.10
2018-12-21T06:32:40.011Z,6.90
2018-12-21T06:35:09.159Z,6.90
2018-12-21T06:37:37.921Z,6.80
2018-12-21T06:40:07.218Z,6.90
2018-12-21T06:42:35.934Z,6.80
2018-12-21T06:45:06.329Z,6.90
2018-12-21T06:47:35.214Z,6.90
2018-12-21T06:50:04.705Z,6.90
2018-12-21T06:52:33.469Z,6.80
2018-12-21T06:55:02.109Z,6.80
2018-12-21T06:57:30.740Z,6.80
2018-12-21T06:59:59.601Z,6.80
2018-12-21T07:02:28.398Z,6.70
2018-12-21T07:04:57.239Z,6.70
2018-12-21T07:07:25.804Z,6.80
2018-12-21T07:09:54.507Z,6.90
2018-12-21T07:12:23.235Z,6.90
2018-12-21T07:14:51.890Z,6.70
2018-12-21T07:17:20.937Z,6.80
2018-12-21T07:19:49.833Z,6.90
2018-12-21T07:22:18.596Z,6.80
2018-12-21T07:24:47.204Z,6.80
2018-12-21T07:27:15.867Z,6.70
2018-12-21T07:29:44.574Z,6.50
2018-12-21T07:32:13.301Z,6.50
2018-12-21T07:34:41.909Z,6.60
2018-12-21T07:37:10.540Z,6.70
2018-12-21T07:39:39.245Z,6.60
2018-12-21T07:42:08.143Z,6.50
2018-12-21T07:44:37.048Z,6.60
2018-12-21T07:47:05.880Z,6.80
2018-12-21T07:49:34.597Z,6.70
2018-12-21T07:52:03.082Z,6.50
2018-12-21T07:54:31.680Z,6.50
2018-12-21T07:57:00.349Z,6.60
2018-12-21T07:59:29.168Z,6.80
2018-12-21T08:01:57.777Z,6.80
2018-12-21T08:04:26.652Z,6.70
2018-12-21T08:06:55.468Z,6.90
2018-12-21T08:09:24.116Z,6.90
2018-12-21T08:11:52.853Z,7.10
2018-12-21T08:14:21.768Z,7.10
2018-12-21T08:16:50.610Z,6.90
2018-12-21T08:19:19.250Z,7.10
2018-12-21T08:21:47.974Z,7.20
2018-12-21T08:24:16.674Z,7.20
2018-12-21T08:26:45.582Z,7.10
2018-12-21T08:29:14.448Z,7.00
2018-12-21T08:31:43.013Z,7.20
2018-12-21T08:34:11.828Z,7.30
2018-12-21T08:36:41.268Z,7.40
2018-12-21T08:39:11.870Z,7.40
2018-12-21T08:41:41.857Z,7.50
2018-12-21T08:44:10.763Z,7.60
2018-12-21T08:46:39.549Z,7.70
2018-12-21T08:49:08.798Z,7.80
2018-12-21T08:51:38.398Z,7.90
2018-12-21T08:54:07.270Z,7.90
2018-12-21T08:56:36.069Z,8.00
2018-12-21T08:59:04.467Z,8.00
2018-12-21T09:01:33.295Z,8.20
2018-12-21T09:04:02.062Z,8.20
2018-12-21T09:06:30.756Z,8.30
2018-12-21T09:08:59.512Z,8.40
2018-12-21T09:11:28.242Z,8.40
2018-12-21T09:13:56.893Z,8.30
2018-12-21T09:16:25.399Z,8.30
2018-12-21T09:18:53.989Z,8.30
2018-12-21T09:21:22.998Z,8.40
2018-12-21T09:23:51.599Z,8.50
2018-12-21T09:26:20.522Z,8.60
2018-12-21T09:28:49.061Z,8.70
2018-12-21T09:31:17.997Z,8.70
2018-12-21T09:36:28.681Z,9.00
2018-12-21T09:38:57.402Z,9.00
2018-12-21T09:41:26.409Z,8.90
2018-12-21T09:43:55.261Z,8.70
2018-12-21T09:46:23.912Z,8.70
2018-12-21T09:48:52.843Z,8.80
2018-12-21T09:51:21.756Z,8.80
2018-12-21T09:53:50.331Z,9.00
2018-12-21T09:56:18.825Z,9.00
2018-12-21T09:58:47.367Z,9.10
2018-12-21T10:01:16.002Z,9.10
2018-12-21T10:03:44.911Z,9.20
2018-12-21T10:06:13.765Z,9.30
2018-12-21T10:08:42.799Z,9.40
2018-12-21T10:11:11.612Z,9.60
2018-12-21T10:13:40.381Z,9.70
2018-12-21T10:16:09.067Z,10.00
2018-12-21T10:18:38.098Z,9.80
2018-12-21T10:21:06.777Z,9.80
2018-12-21T10:23:35.507Z,10.00
2018-12-21T10:26:04.421Z,10.00
2018-12-21T10:28:33.056Z,10.00
2018-12-21T10:31:01.877Z,10.10
2018-12-21T10:33:30.872Z,10.20
2018-12-21T10:35:59.560Z,10.20
2018-12-21T10:38:28.411Z,10.20
2018-12-21T10:40:57.411Z,10.50
2018-12-21T10:43:26.129Z,10.70
2018-12-21T10:45:54.822Z,10.70
2018-12-21T10:48:23.515Z,10.60
2018-12-21T10:50:52.357Z,10.60
2018-12-21T10:53:21.089Z,10.70
2018-12-21T10:55:50.012Z,10.60
2018-12-21T10:58:18.849Z,10.70
2018-12-21T11:00:47.674Z,11.00
2018-12-21T11:03:16.436Z,11.30
2018-12-21T11:05:45.142Z,11.20
2018-12-21T11:08:13.645Z,11.10
2018-12-21T11:10:42.585Z,11.20
2018-12-21T11:13:11.403Z,11.20
2018-12-21T11:15:40.045Z,11.20
2018-12-21T11:18:08.962Z,11.20
2018-12-21T11:20:37.984Z,11.40
2018-12-21T11:23:06.969Z,11.40
2018-12-21T11:25:35.794Z,11.50
2018-12-21T11:28:07.817Z,11.70
2018-12-21T11:30:36.670Z,11.70
2018-12-21T11:33:05.440Z,11.80
2018-12-21T11:35:34.290Z,11.80
2018-12-21T11:38:02.907Z,11.80
2018-12-21T11:40:31.542Z,11.90
2018-12-21T11:43:00.572Z,11.90
2018-12-21T11:45:29.477Z,11.90
2018-12-21T11:47:58.235Z,11.80
2018-12-21T11:50:27.266Z,11.90
2018-12-21T11:52:56.293Z,11.80
2018-12-21T11:55:25.123Z,11.70
2018-12-21T11:57:54.113Z,11.80
2018-12-21T12:00:22.757Z,12.00
2018-12-21T12:02:51.276Z,12.20
2018-12-21T12:05:20.042Z,12.20
2018-12-21T12:07:48.893Z,12.30
2018-12-21T12:10:17.989Z,12.30
2018-12-21T12:12:46.751Z,12.20
2018-12-21T12:15:15.311Z,12.20
2018-12-21T12:17:44.045Z,12.20
2018-12-21T12:20:12.854Z,12.30
2018-12-21T12:22:41.882Z,12.30
2018-12-21T12:25:10.506Z,12.40
2018-12-21T12:27:39.325Z,12.40
2018-12-21T12:30:09.917Z,12.30
2018-12-21T12:32:38.907Z,12.30
2018-12-21T12:35:07.814Z,12.40
2018-12-21T12:37:36.516Z,12.60
2018-12-21T12:40:06.706Z,12.60
2018-12-21T12:42:35.444Z,12.60
2018-12-21T12:45:05.400Z,12.70
2018-12-21T12:47:34.063Z,12.80
2018-12-21T12:50:02.778Z,13.00
2018-12-21T12:52:31.610Z,13.10
2018-12-21T12:55:02.839Z,13.30
2018-12-21T12:57:30.917Z,13.40
2018-12-21T12:59:59.670Z,13.40
2018-12-21T13:02:28.506Z,13.40
2018-12-21T13:04:57.333Z,13.50
2018-12-21T13:07:26.099Z,13.50
2018-12-21T13:09:54.907Z,13.50
2018-12-21T13:12:23.535Z,13.60
2018-12-21T13:14:52.276Z,13.60
2018-12-21T13:17:20.785Z,13.50
2018-12-21T13:19:49.487Z,13.50
2018-12-21T13:22:18.176Z,13.50
2018-12-21T13:24:46.973Z,13.60
2018-12-21T13:27:15.545Z,13.70
2018-12-21T13:29:43.982Z,13.80
2018-12-21T13:32:12.613Z,13.90
2018-12-21T13:34:41.159Z,13.90
2018-12-21T13:37:09.790Z,13.90
2018-12-21T13:39:38.378Z,13.90
2018-12-21T13:42:07.361Z,13.90
2018-12-21T13:44:36.286Z,14.00
2018-12-21T13:47:04.921Z,14.10
2018-12-21T13:49:33.569Z,14.20
2018-12-21T13:52:02.183Z,14.30
2018-12-21T13:54:30.905Z,14.30
2018-12-21T13:56:59.659Z,14.50
2018-12-21T13:59:28.491Z,14.60
2018-12-21T14:01:57.107Z,14.70
2018-12-21T14:04:25.957Z,14.70
2018-12-21T14:06:54.830Z,14.80
2018-12-21T14:09:23.326Z,14.70
2018-12-21T14:11:51.980Z,14.60
2018-12-21T14:14:20.865Z,14.50
2018-12-21T14:16:49.411Z,14.40
2018-12-21T14:19:17.966Z,14.40
2018-12-21T14:21:46.803Z,14.30
2018-12-21T14:24:15.829Z,14.30
2018-12-21T14:26:44.606Z,14.30
2018-12-21T14:29:13.202Z,14.30
2018-12-21T14:31:41.892Z,14.40
2018-12-21T14:34:11.680Z,14.40
2018-12-21T14:36:40.412Z,14.40
2018-12-21T14:39:09.094Z,14.40
2018-12-21T14:41:37.849Z,14.40
2018-12-21T14:44:06.547Z,14.40
2018-12-21T14:46:35.438Z,14.40
2018-12-21T14:49:04.343Z,14.30
2018-12-21T14:51:33.109Z,14.30
2018-12-21T14:54:01.813Z,14.30
2018-12-21T14:56:30.649Z,14.30
2018-12-21T14:58:59.474Z,14.30
2018-12-21T15:01:27.999Z,14.30
2018-12-21T15:03:56.746Z,14.30
2018-12-21T15:06:25.663Z,14.30
2018-12-21T15:08:54.353Z,14.20
2018-12-21T15:11:22.914Z,14.20
2018-12-21T15:13:51.586Z,14.20
2018-12-21T15:16:20.314Z,14.20
2018-12-21T15:18:49.071Z,14.20
2018-12-21T15:21:17.781Z,14.10
2018-12-21T15:23:46.383Z,14.00
2018-12-21T15:26:15.122Z,13.90
2018-12-21T15:28:43.886Z,13.90
2018-12-21T15:31:12.633Z,13.90
2018-12-21T15:33:41.176Z,13.80
2018-12-21T15:36:09.718Z,13.80
2018-12-21T15:38:38.387Z,13.70
2018-12-21T15:41:07.172Z,13.70
2018-12-21T15:43:35.773Z,13.70
2018-12-21T15:46:04.528Z,13.60
2018-12-21T15:48:33.622Z,13.50
2018-12-21T15:51:02.388Z,13.50
2018-12-21T15:53:31.225Z,13.50
2018-12-21T15:55:59.783Z,13.30
2018-12-21T15:58:28.689Z,13.10
2018-12-21T16:00:57.389Z,13.20
2018-12-21T16:03:26.158Z,13.20
2018-12-21T16:05:54.989Z,13.20
2018-12-21T16:08:23.845Z,13.10
2018-12-21T16:10:52.349Z,13.10
2018-12-21T16:13:21.088Z,13.00
2018-12-21T16:15:49.921Z,13.00
2018-12-21T16:18:18.556Z,12.90
2018-12-21T16:20:47.192Z,12.80
2018-12-21T16:23:16.050Z,12.80
2018-12-21T16:25:44.730Z,12.70
2018-12-21T16:28:13.490Z,12.60
2018-12-21T16:30:42.322Z,12.60
2018-12-21T16:33:11.075Z,12.50
2018-12-21T16:35:39.697Z,12.40
2018-12-21T16:38:08.402Z,12.20
2018-12-21T16:40:37.421Z,12.30
2018-12-21T16:43:06.089Z,12.30
2018-12-21T16:45:34.895Z,12.30
2018-12-21T16:48:03.648Z,12.30
2018-12-21T16:50:32.588Z,12.30
2018-12-21T16:53:01.417Z,12.30
2018-12-21T16:55:30.098Z,12.20
2018-12-21T16:57:58.572Z,12.20
2018-12-21T17:00:27.195Z,12.20
2018-12-21T17:02:55.875Z,12.20
2018-12-21T17:05:24.595Z,12.20
2018-12-21T17:07:53.425Z,12.10
2018-12-21T17:10:22.039Z,12.10
2018-12-21T17:12:50.903Z,12.10
2018-12-21T17:15:19.364Z,12.00
2018-12-21T17:17:48.130Z,12.00
2018-12-21T17:20:16.773Z,12.00
2018-12-21T17:22:45.434Z,12.00
2018-12-21T17:25:14.267Z,12.00
2018-12-21T17:27:42.824Z,11.90
2018-12-21T17:30:11.733Z,11.90
2018-12-21T17:32:40.370Z,11.80
2018-12-21T17:35:09.003Z,11.80
2018-12-21T17:37:37.569Z,11.80
2018-12-21T17:40:08.120Z,11.80
2018-12-21T17:42:36.804Z,11.70
2018-12-21T17:45:07.648Z,11.70
2018-12-21T17:47:36.309Z,11.70
2018-12-21T17:50:07.904Z,11.70
2018-12-21T17:52:36.528Z,11.80
2018-12-21T17:55:06.940Z,11.80
2018-12-21T17:57:35.567Z,11.50
2018-12-21T18:00:10.761Z,11.40
2018-12-21T18:02:39.389Z,11.50
2018-12-21T18:05:08.177Z,11.50
2018-12-21T18:07:36.795Z,11.60
2018-12-21T18:10:10.642Z,11.50
2018-12-21T18:12:39.604Z,11.50
2018-12-21T18:15:09.651Z,11.50
2018-12-21T18:17:38.296Z,11.50
2018-12-21T18:20:10.265Z,11.40
2018-12-21T18:22:38.830Z,11.30
2018-12-21T18:25:12.445Z,11.30
2018-12-21T18:27:41.494Z,11.40
2018-12-21T18:30:17.781Z,11.30
2018-12-21T18:32:46.546Z,11.30
2018-12-21T18:35:15.115Z,11.20
2018-12-21T18:37:47.986Z,11.10
2018-12-21T18:40:16.777Z,11.10
2018-12-21T18:42:45.318Z,11.10
2018-12-21T18:45:14.044Z,11.20
2018-12-21T18:47:42.879Z,11.10
2018-12-21T18:50:12.298Z,10.90
2018-12-21T18:52:40.932Z,10.70
2018-12-21T18:55:13.589Z,10.70
2018-12-21T18:57:42.529Z,10.80
2018-12-21T19:00:14.378Z,10.90
2018-12-21T19:02:43.055Z,10.90
2018-12-21T19:05:11.777Z,10.90
2018-12-21T19:07:40.491Z,11.00
2018-12-21T19:10:09.639Z,10.90
2018-12-21T19:12:38.100Z,10.80
2018-12-21T19:15:07.808Z,10.70
2018-12-21T19:17:36.525Z,10.60
2018-12-21T19:20:09.227Z,10.80
2018-12-21T19:22:37.926Z,10.80
2018-12-21T19:25:07.981Z,10.70
2018-12-21T19:27:36.681Z,10.70
2018-12-21T19:30:08.471Z,10.80
2018-12-21T19:32:37.053Z,10.90
2018-12-21T19:35:07.855Z,10.80
2018-12-21T19:37:36.599Z,10.80
2018-12-21T19:40:08.005Z,10.80
2018-12-21T19:42:36.582Z,10.80
2018-12-21T19:45:07.724Z,10.80
2018-12-21T19:47:36.393Z,10.80
2018-12-21T19:50:08.266Z,10.80
2018-12-21T19:52:36.983Z,10.80
2018-12-21T19:55:20.618Z,10.80
2018-12-21T19:57:49.259Z,10.80
2018-12-21T20:00:17.802Z,10.60
2018-12-21T20:02:46.545Z,10.60
2018-12-21T20:05:15.395Z,10.60
2018-12-21T20:07:44.030Z,10.50
2018-12-21T20:10:12.771Z,10.50
2018-12-21T20:12:41.462Z,10.60
2018-12-21T20:15:09.936Z,10.50
2018-12-21T20:17:38.768Z,10.60
2018-12-21T20:20:09.624Z,10.70
2018-12-21T20:22:38.398Z,10.80
2018-12-21T20:25:08.909Z,10.80
2018-12-21T20:27:37.393Z,10.80
2018-12-21T20:30:10.767Z,10.90
2018-12-21T20:32:39.353Z,10.90
2018-12-21T20:35:09.745Z,10.90
2018-12-21T20:37:38.410Z,10.90
2018-12-21T20:40:12.693Z,10.80
2018-12-21T20:42:41.441Z,10.80
2018-12-21T20:45:11.835Z,10.80
2018-12-21T20:47:40.567Z,10.80
2018-12-21T20:50:13.783Z,10.70
2018-12-21T20:52:42.443Z,10.70
2018-12-21T20:55:11.265Z,10.80
2018-12-21T20:57:43.393Z,10.70
2018-12-21T21:00:16.325Z,10.70
2018-12-21T21:02:45.009Z,10.90
2018-12-21T21:05:13.909Z,10.90
2018-12-21T21:07:42.669Z,10.80
2018-12-21T21:10:12.745Z,10.80
2018-12-21T21:12:41.578Z,10.80
2018-12-21T21:15:12.561Z,10.90
2018-12-21T21:17:41.190Z,10.80
2018-12-21T21:20:14.442Z,10.80
2018-12-21T21:22:43.392Z,10.70
2018-12-21T21:25:12.215Z,10.70
2018-12-21T21:27:40.859Z,10.70
2018-12-21T21:30:14.878Z,10.80
2018-12-21T21:32:43.507Z,10.80
2018-12-21T21:35:12.137Z,10.80
2018-12-21T21:37:40.904Z,10.80
2018-12-21T21:40:16.093Z,10.90
2018-12-21T21:42:46.161Z,10.90
2018-12-21T21:45:14.872Z,10.90
2018-12-21T21:47:43.378Z,10.80
2018-12-21T21:50:12.142Z,10.80
2018-12-21T21:52:40.851Z,10.80
2018-12-21T21:55:09.595Z,10.80
2018-12-21T21:57:39.557Z,10.90
2018-12-21T22:00:11.878Z,10.80
2018-12-21T22:02:40.735Z,10.90
2018-12-21T22:05:09.412Z,10.90
2018-12-21T22:07:38.093Z,10.90
2018-12-21T22:10:09.483Z,10.90
2018-12-21T22:12:38.241Z,10.90
2018-12-21T22:15:08.310Z,10.90
2018-12-21T22:17:36.923Z,10.80
2018-12-21T22:20:08.498Z,10.90
2018-12-21T22:25:21.545Z,10.90
2018-12-21T22:27:50.376Z,10.80
2018-12-21T22:30:19.015Z,10.90
2018-12-21T22:32:47.648Z,10.90
2018-12-21T22:35:16.285Z,10.80
2018-12-21T22:37:44.844Z,10.90
2018-12-21T22:40:13.533Z,10.90
2018-12-21T22:42:42.186Z,10.90
2018-12-21T22:45:10.694Z,10.90
2018-12-21T22:47:39.459Z,11.00
2018-12-21T22:50:08.222Z,11.00
2018-12-21T22:52:37.121Z,11.00
2018-12-21T22:55:06.999Z,11.00
2018-12-21T22:57:35.964Z,10.80
2018-12-21T23:00:10.541Z,10.90
2018-12-21T23:02:39.330Z,10.90
2018-12-21T23:05:08.163Z,11.00
2018-12-21T23:07:36.797Z,11.00
2018-12-21T23:10:07.966Z,11.10
2018-12-21T23:12:36.624Z,11.00
2018-12-21T23:15:05.380Z,10.90
2018-12-21T23:17:34.091Z,11.00
2018-12-21T23:20:02.922Z,11.10
2018-12-21T23:22:31.562Z,11.10
2018-12-21T23:25:00.390Z,11.10
2018-12-21T23:27:29.025Z,10.90
2018-12-21T23:29:57.588Z,10.90
2018-12-21T23:32:26.228Z,10.90
2018-12-21T23:34:54.801Z,10.90
2018-12-21T23:37:23.486Z,10.90
2018-12-21T23:39:52.202Z,11.00
2018-12-21T23:42:20.771Z,11.00
2018-12-21T23:44:49.474Z,10.90
2018-12-21T23:47:18.119Z,10.90
2018-12-21T23:49:46.672Z,10.90
2018-12-21T23:52:15.379Z,10.80
2018-12-21T23:54:43.981Z,10.80
2018-12-21T23:57:12.517Z,10.80
2018-12-21T23:59:41.167Z,10.80
